Главная страница
METAR-TAF:

METAR-TAF

Аэропорты :

Криштиану Роналду

Фуншал, Мадейра, Португалия

широта: 32-41-52N, долгота: 016-46-28W, высота над уровнем моря: 59 м

Текущие метеонаблюдения

Эта сводка был подготовлена 21 минут назад, в 01:30 UTC
Ветер 5 Узел от западно-северо-западный
Температура 16°C
Влажность 68%
Давление 1025 hPa
Видимость 10 км и более
Отдельные облака на высоте 1600 фута

METAR: LPMA 260130Z 29005KT 9999 SCT016 16/10 Q1025

Время: 01:51 (01:51 UTC)

Прогноз

Эта сводка был подготовлена 2 часа и 51 минут назад, в 23:00 UTC
Прогноз действительный с 26-го 00 UTC до 26-го 24 UTC
Ветер 5 Узел переменных направлений
Видимость 10 км и более
Отдельные облака на высоте 1600 фута
временами
С 26-го 12 UTC до 26-го 21 UTC
Ветер 7 Узел от южный

TAF: LPMA 252300Z 2600/2624 VRB05KT 9999 SCT016 TEMPO 2612/2621 18007KT

Метеонаблюдения и прогнозы для более 4000 аэропортов (сводки METAR и TAF).

Имеющиеся станции представлены на карте желтыми и красными точками.

Чтобы увидеть название станции, наведите на нее мышь.

Затем щелкните, чтобы увидеть метеонаблюдения и метеопрогнозы.

Управление картой: чтобы увеличить масштаб, щелкните зеленые кнопки с черным крестиком; чтобы уменьшить масштаб, щелкните зеленую кнопку с тире; для просмотра соседних карт щелкайте зеленые стрелки.


METAR-TAF: